sensor_id;sensor_type;location;lat;lon;timestamp;pressure;altitude;pressure_sealevel;temperature;humidity
51299;BME280;37382;45.192;9.790;2024-02-26T00:01:15;100373.91;;;9.03;100.00
51299;BME280;37382;45.192;9.790;2024-02-26T00:03:43;100368.88;;;9.00;100.00
51299;BME280;37382;45.192;9.790;2024-02-26T00:06:12;100368.94;;;9.06;100.00
51299;BME280;37382;45.192;9.790;2024-02-26T00:08:40;100368.44;;;8.96;100.00
51299;BME280;37382;45.192;9.790;2024-02-26T00:11:07;100368.63;;;8.95;100.00
51299;BME280;37382;45.192;9.790;2024-02-26T00:13:35;100356.47;;;8.90;100.00
51299;BME280;37382;45.192;9.790;2024-02-26T00:16:06;100361.28;;;8.88;100.00
51299;BME280;37382;45.192;9.790;2024-02-26T00:18:34;100356.69;;;8.89;100.00
51299;BME280;37382;45.192;9.790;2024-02-26T00:21:03;100357.66;;;8.81;100.00
51299;BME280;37382;45.192;9.790;2024-02-26T00:23:30;100353.03;;;8.75;100.00
51299;BME280;37382;45.192;9.790;2024-02-26T00:25:58;100349.69;;;8.73;100.00
51299;BME280;37382;45.192;9.790;2024-02-26T00:28:25;100350.31;;;8.75;100.00
51299;BME280;37382;45.192;9.790;2024-02-26T00:30:54;100361.09;;;8.68;100.00
51299;BME280;37382;45.192;9.790;2024-02-26T00:33:23;100362.47;;;8.79;100.00
51299;BME280;37382;45.192;9.790;2024-02-26T00:35:51;100346.50;;;8.91;100.00
51299;BME280;37382;45.192;9.790;2024-02-26T00:38:18;100337.06;;;8.87;100.00
51299;BME280;37382;45.192;9.790;2024-02-26T00:40:46;100332.69;;;8.64;100.00
51299;BME280;37382;45.192;9.790;2024-02-26T00:43:13;100338.28;;;8.84;100.00
51299;BME280;37382;45.192;9.790;2024-02-26T00:45:41;100343.47;;;8.79;100.00
51299;BME280;37382;45.192;9.790;2024-02-26T00:48:08;100343.47;;;8.79;100.00
51299;BME280;37382;45.192;9.790;2024-02-26T00:50:36;100325.91;;;8.75;100.00
51299;BME280;37382;45.192;9.790;2024-02-26T00:53:03;100330.06;;;8.71;100.00
51299;BME280;37382;45.192;9.790;2024-02-26T00:55:31;100322.16;;;8.76;100.00
51299;BME280;37382;45.192;9.790;2024-02-26T00:57:58;100325.03;;;8.68;100.00
51299;BME280;37382;45.192;9.790;2024-02-26T01:00:26;100321.41;;;8.61;100.00
51299;BME280;37382;45.192;9.790;2024-02-26T01:02:53;100313.41;;;8.74;100.00
51299;BME280;37382;45.192;9.790;2024-02-26T01:05:20;100299.03;;;8.80;100.00
51299;BME280;37382;45.192;9.790;2024-02-26T01:07:48;100300.47;;;8.76;100.00
51299;BME280;37382;45.192;9.790;2024-02-26T01:10:16;100295.63;;;8.71;100.00
51299;BME280;37382;45.192;9.790;2024-02-26T01:12:43;100297.91;;;8.68;100.00
51299;BME280;37382;45.192;9.790;2024-02-26T01:15:11;100292.53;;;8.75;100.00
51299;BME280;37382;45.192;9.790;2024-02-26T01:17:38;100286.28;;;8.74;100.00
51299;BME280;37382;45.192;9.790;2024-02-26T01:20:06;100292.81;;;8.58;100.00
51299;BME280;37382;45.192;9.790;2024-02-26T01:22:36;100292.81;;;8.58;100.00
51299;BME280;37382;45.192;9.790;2024-02-26T01:25:03;100298.47;;;8.42;100.00
51299;BME280;37382;45.192;9.790;2024-02-26T01:27:31;100299.53;;;8.62;100.00
51299;BME280;37382;45.192;9.790;2024-02-26T01:29:58;100296.41;;;8.65;100.00
51299;BME280;37382;45.192;9.790;2024-02-26T01:32:26;100292.84;;;8.43;100.00
51299;BME280;37382;45.192;9.790;2024-02-26T01:34:53;100294.09;;;8.41;100.00
51299;BME280;37382;45.192;9.790;2024-02-26T01:37:21;100286.88;;;8.69;100.00
51299;BME280;37382;45.192;9.790;2024-02-26T01:39:48;100285.81;;;8.70;100.00
51299;BME280;37382;45.192;9.790;2024-02-26T01:42:15;100283.56;;;8.74;100.00
51299;BME280;37382;45.192;9.790;2024-02-26T01:44:43;100288.31;;;8.72;100.00
51299;BME280;37382;45.192;9.790;2024-02-26T01:47:11;100291.91;;;8.72;100.00
51299;BME280;37382;45.192;9.790;2024-02-26T01:49:41;100288.06;;;8.95;100.00
51299;BME280;37382;45.192;9.790;2024-02-26T01:52:09;100287.13;;;8.81;100.00
51299;BME280;37382;45.192;9.790;2024-02-26T01:54:39;100283.28;;;8.69;100.00
51299;BME280;37382;45.192;9.790;2024-02-26T01:57:08;100275.56;;;8.66;100.00
51299;BME280;37382;45.192;9.790;2024-02-26T01:59:36;100275.81;;;8.71;100.00
51299;BME280;37382;45.192;9.790;2024-02-26T02:02:06;100270.63;;;8.76;100.00
51299;BME280;37382;45.192;9.790;2024-02-26T02:04:35;100272.06;;;8.72;100.00
51299;BME280;37382;45.192;9.790;2024-02-26T02:07:04;100272.75;;;8.81;100.00
51299;BME280;37382;45.192;9.790;2024-02-26T02:09:32;100269.00;;;8.82;100.00
51299;BME280;37382;45.192;9.790;2024-02-26T02:12:00;100261.31;;;8.85;100.00
51299;BME280;37382;45.192;9.790;2024-02-26T02:14:27;100255.50;;;8.88;100.00
51299;BME280;37382;45.192;9.790;2024-02-26T02:16:55;100257.75;;;8.57;100.00
51299;BME280;37382;45.192;9.790;2024-02-26T02:19:22;100259.66;;;8.56;100.00
51299;BME280;37382;45.192;9.790;2024-02-26T02:21:49;100255.97;;;8.42;100.00
51299;BME280;37382;45.192;9.790;2024-02-26T02:24:17;100249.00;;;8.54;100.00
51299;BME280;37382;45.192;9.790;2024-02-26T02:26:45;100246.28;;;8.33;100.00
51299;BME280;37382;45.192;9.790;2024-02-26T02:29:13;100248.03;;;8.41;100.00
51299;BME280;37382;45.192;9.790;2024-02-26T02:31:41;100245.50;;;8.39;100.00
51299;BME280;37382;45.192;9.790;2024-02-26T02:34:09;100239.81;;;8.55;100.00
51299;BME280;37382;45.192;9.790;2024-02-26T02:36:51;100241.75;;;8.40;100.00
51299;BME280;37382;45.192;9.790;2024-02-26T02:39:19;100238.59;;;8.58;100.00
51299;BME280;37382;45.192;9.790;2024-02-26T02:41:47;100239.03;;;8.40;100.00
51299;BME280;37382;45.192;9.790;2024-02-26T02:44:15;100234.94;;;8.44;100.00
51299;BME280;37382;45.192;9.790;2024-02-26T02:46:42;100240.41;;;8.51;100.00
51299;BME280;37382;45.192;9.790;2024-02-26T02:49:10;100230.22;;;8.53;100.00
51299;BME280;37382;45.192;9.790;2024-02-26T02:51:38;100230.91;;;8.40;100.00
51299;BME280;37382;45.192;9.790;2024-02-26T02:54:05;100238.78;;;8.35;100.00
51299;BME280;37382;45.192;9.790;2024-02-26T02:56:32;100245.50;;;8.17;100.00
51299;BME280;37382;45.192;9.790;2024-02-26T02:59:00;100244.28;;;8.20;100.00
51299;BME280;37382;45.192;9.790;2024-02-26T03:01:28;100246.28;;;8.33;100.00
51299;BME280;37382;45.192;9.790;2024-02-26T03:03:55;100257.53;;;8.30;100.00
51299;BME280;37382;45.192;9.790;2024-02-26T03:06:23;100247.75;;;8.35;100.00
51299;BME280;37382;45.192;9.790;2024-02-26T03:09:18;100248.34;;;8.31;100.00
51299;BME280;37382;45.192;9.790;2024-02-26T03:11:46;100259.06;;;8.39;100.00
51299;BME280;37382;45.192;9.790;2024-02-26T03:14:13;100248.59;;;8.36;100.00
51299;BME280;37382;45.192;9.790;2024-02-26T03:16:40;100245.97;;;8.21;100.00
51299;BME280;37382;45.192;9.790;2024-02-26T03:19:08;100242.13;;;8.37;100.00
51299;BME280;37382;45.192;9.790;2024-02-26T03:21:36;100233.97;;;8.30;100.00
51299;BME280;37382;45.192;9.790;2024-02-26T03:24:03;100236.97;;;8.20;100.00
51299;BME280;37382;45.192;9.790;2024-02-26T03:26:31;100235.97;;;8.22;100.00
51299;BME280;37382;45.192;9.790;2024-02-26T03:28:58;100227.59;;;8.16;100.00
51299;BME280;37382;45.192;9.790;2024-02-26T03:31:26;100227.78;;;8.15;100.00
51299;BME280;37382;45.192;9.790;2024-02-26T03:33:53;100226.88;;;8.08;100.00
51299;BME280;37382;45.192;9.790;2024-02-26T03:36:21;100219.72;;;8.00;100.00
51299;BME280;37382;45.192;9.790;2024-02-26T03:38:49;100230.81;;;8.05;100.00
51299;BME280;37382;45.192;9.790;2024-02-26T03:41:16;100231.31;;;8.15;100.00
51299;BME280;37382;45.192;9.790;2024-02-26T03:43:43;100233.50;;;8.05;100.00
51299;BME280;37382;45.192;9.790;2024-02-26T03:46:12;100229.63;;;8.14;100.00
51299;BME280;37382;45.192;9.790;2024-02-26T03:48:41;100224.22;;;8.14;100.00
51299;BME280;37382;45.192;9.790;2024-02-26T03:51:09;100216.22;;;8.28;100.00
51299;BME280;37382;45.192;9.790;2024-02-26T03:53:37;100219.31;;;8.25;100.00
51299;BME280;37382;45.192;9.790;2024-02-26T03:56:06;100226.63;;;8.02;100.00
51299;BME280;37382;45.192;9.790;2024-02-26T03:58:33;100223.97;;;8.09;100.00
51299;BME280;37382;45.192;9.790;2024-02-26T04:01:01;100218.94;;;8.06;100.00
51299;BME280;37382;45.192;9.790;2024-02-26T04:03:29;100227.69;;;8.08;100.00
51299;BME280;37382;45.192;9.790;2024-02-26T04:05:57;100229.03;;;8.19;100.00
51299;BME280;37382;45.192;9.790;2024-02-26T04:08:24;100231.31;;;8.15;100.00
51299;BME280;37382;45.192;9.790;2024-02-26T04:10:51;100230.53;;;8.22;100.00
51299;BME280;37382;45.192;9.790;2024-02-26T04:13:19;100224.50;;;8.19;100.00
51299;BME280;37382;45.192;9.790;2024-02-26T04:15:47;100231.94;;;8.17;100.00
51299;BME280;37382;45.192;9.790;2024-02-26T04:18:14;100223.38;;;8.14;100.00
51299;BME280;37382;45.192;9.790;2024-02-26T04:20:42;100229.03;;;8.19;100.00
51299;BME280;37382;45.192;9.790;2024-02-26T04:23:09;100234.16;;;8.29;100.00
51299;BME280;37382;45.192;9.790;2024-02-26T04:25:37;100236.19;;;8.27;100.00
51299;BME280;37382;45.192;9.790;2024-02-26T04:28:05;100236.19;;;8.27;100.00
51299;BME280;37382;45.192;9.790;2024-02-26T04:30:32;100234.16;;;8.29;100.00
51299;BME280;37382;45.192;9.790;2024-02-26T04:32:59;100230.03;;;8.33;100.00
51299;BME280;37382;45.192;9.790;2024-02-26T04:35:27;100230.03;;;8.33;100.00
51299;BME280;37382;45.192;9.790;2024-02-26T04:37:54;100243.91;;;8.45;100.00
51299;BME280;37382;45.192;9.790;2024-02-26T04:40:22;100244.84;;;8.37;100.00
51299;BME280;37382;45.192;9.790;2024-02-26T04:42:49;100246.09;;;8.34;100.00
51299;BME280;37382;45.192;9.790;2024-02-26T04:45:17;100255.38;;;8.04;100.00
51299;BME280;37382;45.192;9.790;2024-02-26T04:47:46;100256.22;;;8.04;100.00
51299;BME280;37382;45.192;9.790;2024-02-26T04:50:14;100250.88;;;8.11;100.00
51299;BME280;37382;45.192;9.790;2024-02-26T04:52:41;100252.47;;;8.05;100.00
51299;BME280;37382;45.192;9.790;2024-02-26T04:55:09;100262.47;;;8.05;100.00
51299;BME280;37382;45.192;9.790;2024-02-26T04:57:36;100253.25;;;8.20;100.00
51299;BME280;37382;45.192;9.790;2024-02-26T05:00:04;100254.53;;;8.25;100.00
51299;BME280;37382;45.192;9.790;2024-02-26T05:02:32;100249.25;;;8.16;100.00
51299;BME280;37382;45.192;9.790;2024-02-26T05:05:06;100249.13;;;8.25;100.00
51299;BME280;37382;45.192;9.790;2024-02-26T05:07:33;100247.94;;;8.34;100.00
51299;BME280;37382;45.192;9.790;2024-02-26T05:10:01;100244.66;;;8.38;100.00
51299;BME280;37382;45.192;9.790;2024-02-26T05:12:29;100242.91;;;8.31;100.00
51299;BME280;37382;45.192;9.790;2024-02-26T05:14:57;100246.59;;;8.23;100.00
51299;BME280;37382;45.192;9.790;2024-02-26T05:17:24;100252.88;;;8.45;100.00
51299;BME280;37382;45.192;9.790;2024-02-26T05:19:52;100239.44;;;8.37;100.00
51299;BME280;37382;45.192;9.790;2024-02-26T05:22:20;100243.31;;;8.28;100.00
51299;BME280;37382;45.192;9.790;2024-02-26T05:24:47;100240.75;;;8.19;100.00
51299;BME280;37382;45.192;9.790;2024-02-26T05:27:14;100243.88;;;8.23;100.00
51299;BME280;37382;45.192;9.790;2024-02-26T05:29:42;100243.75;;;8.10;100.00
51299;BME280;37382;45.192;9.790;2024-02-26T05:32:09;100241.19;;;8.23;100.00
51299;BME280;37382;45.192;9.790;2024-02-26T05:34:37;100236.59;;;8.24;100.00
51299;BME280;37382;45.192;9.790;2024-02-26T05:37:04;100234.47;;;8.19;100.00
51299;BME280;37382;45.192;9.790;2024-02-26T05:39:31;100233.13;;;8.08;100.00
51299;BME280;37382;45.192;9.790;2024-02-26T05:41:59;100232.50;;;8.06;100.00
51299;BME280;37382;45.192;9.790;2024-02-26T05:44:26;100239.44;;;8.15;100.00
51299;BME280;37382;45.192;9.790;2024-02-26T05:46:54;100234.66;;;8.17;100.00
51299;BME280;37382;45.192;9.790;2024-02-26T05:49:22;100234.47;;;8.19;100.00
51299;BME280;37382;45.192;9.790;2024-02-26T05:51:50;100235.38;;;8.26;100.00
51299;BME280;37382;45.192;9.790;2024-02-26T05:54:17;100238.63;;;8.15;100.00
51299;BME280;37382;45.192;9.790;2024-02-26T05:56:45;100235.72;;;8.16;100.00
51299;BME280;37382;45.192;9.790;2024-02-26T05:59:12;100240.41;;;8.29;100.00
51299;BME280;37382;45.192;9.790;2024-02-26T06:01:39;100234.03;;;8.15;100.00
51299;BME280;37382;45.192;9.790;2024-02-26T06:04:08;100237.25;;;8.26;100.00
51299;BME280;37382;45.192;9.790;2024-02-26T06:06:35;100236.16;;;8.20;100.00
51299;BME280;37382;45.192;9.790;2024-02-26T06:09:05;100244.81;;;8.30;100.00
51299;BME280;37382;45.192;9.790;2024-02-26T06:11:32;100241.63;;;8.27;100.00
51299;BME280;37382;45.192;9.790;2024-02-26T06:14:00;100250.47;;;8.14;100.00
51299;BME280;37382;45.192;9.790;2024-02-26T06:16:30;100252.38;;;8.13;100.00
51299;BME280;37382;45.192;9.790;2024-02-26T06:18:58;100256.88;;;8.06;100.00
51299;BME280;37382;45.192;9.790;2024-02-26T06:21:27;100263.13;;;8.07;100.00
51299;BME280;37382;45.192;9.790;2024-02-26T06:23:55;100261.94;;;8.16;100.00
51299;BME280;37382;45.192;9.790;2024-02-26T06:26:22;100258.59;;;8.14;100.00
51299;BME280;37382;45.192;9.790;2024-02-26T06:28:50;100258.59;;;8.14;100.00
51299;BME280;37382;45.192;9.790;2024-02-26T06:31:19;100260.97;;;8.02;100.00
51299;BME280;37382;45.192;9.790;2024-02-26T06:33:47;100263.97;;;8.07;100.00
51299;BME280;37382;45.192;9.790;2024-02-26T06:36:16;100259.38;;;8.08;100.00
51299;BME280;37382;45.192;9.790;2024-02-26T06:38:43;100254.53;;;8.03;100.00
51299;BME280;37382;45.192;9.790;2024-02-26T06:41:11;100254.69;;;7.95;100.00
51299;BME280;37382;45.192;9.790;2024-02-26T06:43:38;100259.72;;;7.98;100.00
51299;BME280;37382;45.192;9.790;2024-02-26T06:46:06;100255.81;;;7.86;100.00
51299;BME280;37382;45.192;9.790;2024-02-26T06:48:34;100250.59;;;7.84;100.00
51299;BME280;37382;45.192;9.790;2024-02-26T06:51:04;100250.88;;;7.89;100.00
51299;BME280;37382;45.192;9.790;2024-02-26T06:53:31;100258.81;;;7.91;100.00
51299;BME280;37382;45.192;9.790;2024-02-26T06:55:58;100253.63;;;7.96;100.00
51299;BME280;37382;45.192;9.790;2024-02-26T06:58:26;100255.84;;;8.07;100.00
51299;BME280;37382;45.192;9.790;2024-02-26T07:00:53;100254.28;;;7.98;100.00
51299;BME280;37382;45.192;9.790;2024-02-26T07:03:21;100252.66;;;8.04;100.00
51299;BME280;37382;45.192;9.790;2024-02-26T07:05:50;100249.66;;;7.92;100.00
51299;BME280;37382;45.192;9.790;2024-02-26T07:08:18;100256.34;;;7.96;100.00
51299;BME280;37382;45.192;9.790;2024-02-26T07:10:46;100262.91;;;8.08;100.00
51299;BME280;37382;45.192;9.790;2024-02-26T07:13:13;100269.63;;;7.91;100.00
51299;BME280;37382;45.192;9.790;2024-02-26T07:15:41;100269.78;;;8.04;100.00
51299;BME280;37382;45.192;9.790;2024-02-26T07:18:08;100271.53;;;8.12;100.00
51299;BME280;37382;45.192;9.790;2024-02-26T07:20:36;100257.13;;;8.11;100.00
51299;BME280;37382;45.192;9.790;2024-02-26T07:23:04;100254.34;;;8.05;100.00
51299;BME280;37382;45.192;9.790;2024-02-26T07:25:31;100259.19;;;7.88;100.00
51299;BME280;37382;45.192;9.790;2024-02-26T07:27:58;100266.34;;;7.95;100.00
51299;BME280;37382;45.192;9.790;2024-02-26T07:30:26;100265.50;;;7.95;100.00
51299;BME280;37382;45.192;9.790;2024-02-26T07:32:53;100263.78;;;8.09;100.00
51299;BME280;37382;45.192;9.790;2024-02-26T07:35:21;100264.94;;;7.99;100.00
51299;BME280;37382;45.192;9.790;2024-02-26T07:37:49;100266.00;;;8.05;100.00
51299;BME280;37382;45.192;9.790;2024-02-26T07:40:17;100264.47;;;8.17;100.00
51299;BME280;37382;45.192;9.790;2024-02-26T07:42:45;100264.75;;;8.23;100.00
51299;BME280;37382;45.192;9.790;2024-02-26T07:45:13;100266.97;;;8.19;100.00
51299;BME280;37382;45.192;9.790;2024-02-26T07:47:42;100270.03;;;8.09;100.00
51299;BME280;37382;45.192;9.790;2024-02-26T07:50:10;100267.44;;;8.23;100.00
51299;BME280;37382;45.192;9.790;2024-02-26T07:52:39;100262.09;;;8.29;100.00
51299;BME280;37382;45.192;9.790;2024-02-26T07:55:07;100262.03;;;8.23;100.00
51299;BME280;37382;45.192;9.790;2024-02-26T07:57:35;100268.66;;;8.20;100.00
51299;BME280;37382;45.192;9.790;2024-02-26T08:00:03;100267.69;;;8.28;100.00
51299;BME280;37382;45.192;9.790;2024-02-26T08:02:31;100273.38;;;8.33;100.00
51299;BME280;37382;45.192;9.790;2024-02-26T08:04:59;100275.00;;;8.27;100.00
51299;BME280;37382;45.192;9.790;2024-02-26T08:07:26;100272.53;;;8.32;100.00
51299;BME280;37382;45.192;9.790;2024-02-26T08:09:54;100271.19;;;8.22;100.00
51299;BME280;37382;45.192;9.790;2024-02-26T08:12:22;100267.56;;;8.14;100.00
51299;BME280;37382;45.192;9.790;2024-02-26T08:14:49;100264.03;;;8.14;100.00
51299;BME280;37382;45.192;9.790;2024-02-26T08:17:17;100259.44;;;8.14;100.00
51299;BME280;37382;45.192;9.790;2024-02-26T08:19:44;100256.72;;;8.14;100.00
51299;BME280;37382;45.192;9.790;2024-02-26T08:22:12;100255.31;;;8.18;100.00
51299;BME280;37382;45.192;9.790;2024-02-26T08:24:43;100257.63;;;8.22;100.00
51299;BME280;37382;45.192;9.790;2024-02-26T08:27:11;100254.94;;;8.00;100.00
51299;BME280;37382;45.192;9.790;2024-02-26T08:29:39;100261.50;;;8.12;100.00
51299;BME280;37382;45.192;9.790;2024-02-26T08:32:07;100260.78;;;8.04;100.00
51299;BME280;37382;45.192;9.790;2024-02-26T08:34:34;100253.06;;;8.00;100.00
51299;BME280;37382;45.192;9.790;2024-02-26T08:37:02;100259.38;;;8.08;100.00
51299;BME280;37382;45.192;9.790;2024-02-26T08:39:29;100254.50;;;8.18;100.00
51299;BME280;37382;45.192;9.790;2024-02-26T08:41:57;100254.59;;;8.10;100.00
51299;BME280;37382;45.192;9.790;2024-02-26T08:44:24;100241.53;;;8.13;100.00
51299;BME280;37382;45.192;9.790;2024-02-26T08:46:52;100238.91;;;8.27;100.00
51299;BME280;37382;45.192;9.790;2024-02-26T08:49:20;100236.66;;;8.30;100.00
51299;BME280;37382;45.192;9.790;2024-02-26T08:51:51;100237.56;;;8.37;100.00
51299;BME280;37382;45.192;9.790;2024-02-26T08:54:18;100230.84;;;8.33;100.00
51299;BME280;37382;45.192;9.790;2024-02-26T08:56:45;100239.03;;;8.40;100.00
51299;BME280;37382;45.192;9.790;2024-02-26T08:59:13;100239.63;;;8.35;100.00
51299;BME280;37382;45.192;9.790;2024-02-26T09:01:43;100242.13;;;8.37;100.00
51299;BME280;37382;45.192;9.790;2024-02-26T09:04:10;100239.53;;;8.44;100.00
51299;BME280;37382;45.192;9.790;2024-02-26T09:06:38;100241.53;;;8.42;100.00
51299;BME280;37382;45.192;9.790;2024-02-26T09:09:05;100238.00;;;8.41;100.00
51299;BME280;37382;45.192;9.790;2024-02-26T09:11:33;100239.69;;;8.42;100.00
51299;BME280;37382;45.192;9.790;2024-02-26T09:14:01;100239.78;;;8.49;100.00
51299;BME280;37382;45.192;9.790;2024-02-26T09:16:28;100241.06;;;8.53;100.00
51299;BME280;37382;45.192;9.790;2024-02-26T09:18:56;100232.16;;;8.37;100.00
51299;BME280;37382;45.192;9.790;2024-02-26T09:21:24;100238.97;;;8.55;100.00
51299;BME280;37382;45.192;9.790;2024-02-26T09:23:53;100232.53;;;8.56;100.00
51299;BME280;37382;45.192;9.790;2024-02-26T09:26:21;100238.16;;;8.54;100.00
51299;BME280;37382;45.192;9.790;2024-02-26T09:28:48;100227.50;;;8.31;100.00
51299;BME280;37382;45.192;9.790;2024-02-26T09:31:17;100232.22;;;8.44;100.00
51299;BME280;37382;45.192;9.790;2024-02-26T09:33:45;100230.91;;;8.40;100.00
51299;BME280;37382;45.192;9.790;2024-02-26T09:36:13;100226.59;;;8.46;100.00
51299;BME280;37382;45.192;9.790;2024-02-26T09:38:41;100229.75;;;8.49;100.00
51299;BME280;37382;45.192;9.790;2024-02-26T09:41:22;100233.91;;;8.45;100.00
51299;BME280;37382;45.192;9.790;2024-02-26T09:43:52;100219.09;;;8.48;100.00
51299;BME280;37382;45.192;9.790;2024-02-26T09:46:24;100228.63;;;8.65;100.00
51299;BME280;37382;45.192;9.790;2024-02-26T09:48:53;100221.91;;;8.61;100.00
51299;BME280;37382;45.192;9.790;2024-02-26T09:51:23;100228.63;;;8.65;100.00
51299;BME280;37382;45.192;9.790;2024-02-26T09:53:53;100225.22;;;8.57;100.00
51299;BME280;37382;45.192;9.790;2024-02-26T09:56:21;100216.84;;;8.51;100.00
51299;BME280;37382;45.192;9.790;2024-02-26T09:58:50;100219.59;;;8.58;100.00
51299;BME280;37382;45.192;9.790;2024-02-26T10:01:21;100214.38;;;8.57;100.00
51299;BME280;37382;45.192;9.790;2024-02-26T10:03:54;100215.00;;;8.59;100.00
51299;BME280;37382;45.192;9.790;2024-02-26T10:06:24;100217.91;;;8.57;100.00
51299;BME280;37382;45.192;9.790;2024-02-26T10:08:53;100222.31;;;8.58;100.00
51299;BME280;37382;45.192;9.790;2024-02-26T10:11:20;100222.84;;;8.75;100.00
51299;BME280;37382;45.192;9.790;2024-02-26T10:13:49;100224.44;;;8.63;100.00
51299;BME280;37382;45.192;9.790;2024-02-26T10:16:17;100224.09;;;8.72;100.00
51299;BME280;37382;45.192;9.790;2024-02-26T10:18:52;100223.03;;;8.73;100.00
51299;BME280;37382;45.192;9.790;2024-02-26T10:21:26;100224.56;;;8.83;100.00
51299;BME280;37382;45.192;9.790;2024-02-26T10:23:54;100216.16;;;8.71;100.00
51299;BME280;37382;45.192;9.790;2024-02-26T10:26:22;100222.63;;;8.70;100.00
51299;BME280;37382;45.192;9.790;2024-02-26T10:28:50;100233.03;;;8.66;100.00
51299;BME280;37382;45.192;9.790;2024-02-26T10:31:21;100227.44;;;8.75;100.00
51299;BME280;37382;45.192;9.790;2024-02-26T10:33:49;100216.63;;;8.81;100.00
51299;BME280;37382;45.192;9.790;2024-02-26T10:36:18;100206.88;;;8.94;100.00
51299;BME280;37382;45.192;9.790;2024-02-26T10:38:45;100204.44;;;8.99;100.00
51299;BME280;37382;45.192;9.790;2024-02-26T10:41:14;100206.88;;;8.94;100.00
51299;BME280;37382;45.192;9.790;2024-02-26T10:43:42;100202.25;;;8.87;100.00
51299;BME280;37382;45.192;9.790;2024-02-26T10:46:11;100217.88;;;8.79;100.00
51299;BME280;37382;45.192;9.790;2024-02-26T10:48:39;100219.59;;;8.86;100.00
51299;BME280;37382;45.192;9.790;2024-02-26T10:51:11;100220.25;;;8.95;100.00
51299;BME280;37382;45.192;9.790;2024-02-26T10:53:44;100218.34;;;8.89;100.00
51299;BME280;37382;45.192;9.790;2024-02-26T10:56:15;100211.47;;;8.86;100.00
51299;BME280;37382;45.192;9.790;2024-02-26T10:58:45;100215.16;;;8.79;100.00
51299;BME280;37382;45.192;9.790;2024-02-26T11:01:13;100215.38;;;8.77;100.00
51299;BME280;37382;45.192;9.790;2024-02-26T11:03:42;100204.56;;;8.90;100.00
51299;BME280;37382;45.192;9.790;2024-02-26T11:06:12;100207.88;;;8.79;100.00
51299;BME280;37382;45.192;9.790;2024-02-26T11:08:40;100193.69;;;8.84;100.00
51299;BME280;37382;45.192;9.790;2024-02-26T11:11:08;100197.38;;;9.04;100.00
51299;BME280;37382;45.192;9.790;2024-02-26T11:13:36;100192.06;;;8.89;100.00
51299;BME280;37382;45.192;9.790;2024-02-26T11:16:11;100192.00;;;8.76;100.00
51299;BME280;37382;45.192;9.790;2024-02-26T11:18:39;100170.69;;;8.73;100.00
51299;BME280;37382;45.192;9.790;2024-02-26T11:21:11;100178.44;;;8.76;100.00
51299;BME280;37382;45.192;9.790;2024-02-26T11:23:38;100174.44;;;8.72;100.00
51299;BME280;37382;45.192;9.790;2024-02-26T11:26:09;100176.91;;;8.67;100.00
51299;BME280;37382;45.192;9.790;2024-02-26T11:28:39;100182.53;;;8.65;100.00
51299;BME280;37382;45.192;9.790;2024-02-26T11:31:08;100189.34;;;8.54;100.00
51299;BME280;37382;45.192;9.790;2024-02-26T11:33:36;100185.75;;;8.47;100.00
51299;BME280;37382;45.192;9.790;2024-02-26T11:36:11;100179.38;;;8.62;100.00
51299;BME280;37382;45.192;9.790;2024-02-26T11:38:39;100179.09;;;8.50;100.00
51299;BME280;37382;45.192;9.790;2024-02-26T11:41:07;100182.88;;;8.55;100.00
51299;BME280;37382;45.192;9.790;2024-02-26T11:46:39;100191.06;;;8.62;100.00
51299;BME280;37382;45.192;9.790;2024-02-26T11:51:55;100178.94;;;8.58;100.00
51299;BME280;37382;45.192;9.790;2024-02-26T11:54:46;100173.59;;;8.71;100.00
51299;BME280;37382;45.192;9.790;2024-02-26T12:05:16;100168.22;;;8.78;100.00
51299;BME280;37382;45.192;9.790;2024-02-26T12:07:55;100144.69;;;8.92;100.00
51299;BME280;37382;45.192;9.790;2024-02-26T12:10:28;100132.88;;;9.13;100.00
51299;BME280;37382;45.192;9.790;2024-02-26T12:15:54;100118.31;;;9.21;100.00
51299;BME280;37382;45.192;9.790;2024-02-26T12:18:22;100125.00;;;9.32;100.00
51299;BME280;37382;45.192;9.790;2024-02-26T12:21:00;100138.63;;;8.83;100.00
51299;BME280;37382;45.192;9.790;2024-02-26T12:23:31;100123.19;;;8.84;100.00
51299;BME280;37382;45.192;9.790;2024-02-26T12:25:59;100137.22;;;8.94;100.00
51299;BME280;37382;45.192;9.790;2024-02-26T12:28:28;100132.81;;;8.93;100.00
51299;BME280;37382;45.192;9.790;2024-02-26T12:30:56;100128.41;;;8.92;100.00
51299;BME280;37382;45.192;9.790;2024-02-26T12:33:28;100129.69;;;8.96;100.00
51299;BME280;37382;45.192;9.790;2024-02-26T12:35:56;100131.59;;;8.96;100.00
51299;BME280;37382;45.192;9.790;2024-02-26T12:38:24;100147.00;;;8.95;100.00
51299;BME280;37382;45.192;9.790;2024-02-26T12:40:52;100136.91;;;8.76;100.00
51299;BME280;37382;45.192;9.790;2024-02-26T12:43:20;100138.44;;;8.92;100.00
51299;BME280;37382;45.192;9.790;2024-02-26T12:45:47;100139.69;;;8.89;100.00
51299;BME280;37382;45.192;9.790;2024-02-26T12:48:15;100135.31;;;8.95;100.00
51299;BME280;37382;45.192;9.790;2024-02-26T12:50:46;100124.28;;;9.03;100.00
51299;BME280;37382;45.192;9.790;2024-02-26T12:53:17;100123.09;;;9.12;100.00
51299;BME280;37382;45.192;9.790;2024-02-26T12:55:45;100106.97;;;9.04;100.00
51299;BME280;37382;45.192;9.790;2024-02-26T12:58:13;100108.22;;;9.01;100.00
51299;BME280;37382;45.192;9.790;2024-02-26T13:00:41;100104.16;;;9.32;100.00
51299;BME280;37382;45.192;9.790;2024-02-26T13:03:09;100108.09;;;9.23;100.00
51299;BME280;37382;45.192;9.790;2024-02-26T13:05:37;100118.50;;;9.19;100.00
51299;BME280;37382;45.192;9.790;2024-02-26T13:08:05;100119.94;;;9.08;100.00
51299;BME280;37382;45.192;9.790;2024-02-26T13:10:36;100113.25;;;9.04;100.00
51299;BME280;37382;45.192;9.790;2024-02-26T13:13:04;100125.34;;;9.02;100.00